sensor_id;sensor_type;location;lat;lon;timestamp;pressure;altitude;pressure_sealevel;temperature;humidity
58843;BME280;44614;54.356;10.100;2022-12-29T00:02:19;99612.59;;;6.30;100.00
58843;BME280;44614;54.356;10.100;2022-12-29T00:04:44;99616.97;;;6.31;100.00
58843;BME280;44614;54.356;10.100;2022-12-29T00:07:10;99611.91;;;6.35;100.00
58843;BME280;44614;54.356;10.100;2022-12-29T00:09:35;99608.09;;;6.36;100.00
58843;BME280;44614;54.356;10.100;2022-12-29T00:12:02;99590.31;;;6.33;100.00
58843;BME280;44614;54.356;10.100;2022-12-29T00:14:28;99602.22;;;6.39;100.00
58843;BME280;44614;54.356;10.100;2022-12-29T00:17:12;99601.97;;;6.41;100.00
58843;BME280;44614;54.356;10.100;2022-12-29T00:19:38;99587.50;;;6.40;100.00
58843;BME280;44614;54.356;10.100;2022-12-29T00:22:22;99598.59;;;6.45;100.00
58843;BME280;44614;54.356;10.100;2022-12-29T00:25:08;99582.81;;;6.47;100.00
58843;BME280;44614;54.356;10.100;2022-12-29T00:27:53;99581.59;;;6.43;100.00
58843;BME280;44614;54.356;10.100;2022-12-29T00:30:37;99581.91;;;6.53;100.00
58843;BME280;44614;54.356;10.100;2022-12-29T00:33:26;99582.50;;;6.55;100.00
58843;BME280;44614;54.356;10.100;2022-12-29T00:36:18;99595.47;;;6.60;100.00
58843;BME280;44614;54.356;10.100;2022-12-29T00:39:12;99580.78;;;6.61;100.00
58843;BME280;44614;54.356;10.100;2022-12-29T00:42:08;99575.09;;;6.63;100.00
58843;BME280;44614;54.356;10.100;2022-12-29T00:44:52;99577.59;;;6.64;100.00
58843;BME280;44614;54.356;10.100;2022-12-29T00:47:17;99569.19;;;6.66;100.00
58843;BME280;44614;54.356;10.100;2022-12-29T00:49:43;99582.56;;;6.67;100.00
58843;BME280;44614;54.356;10.100;2022-12-29T00:52:10;99555.91;;;6.69;100.00
58843;BME280;44614;54.356;10.100;2022-12-29T00:54:38;99558.41;;;6.71;100.00
58843;BME280;44614;54.356;10.100;2022-12-29T00:57:05;99546.53;;;6.65;100.00
58843;BME280;44614;54.356;10.100;2022-12-29T00:59:31;99560.22;;;6.77;100.00
58843;BME280;44614;54.356;10.100;2022-12-29T01:01:57;99552.41;;;6.80;100.00
58843;BME280;44614;54.356;10.100;2022-12-29T01:04:24;99545.69;;;6.83;100.00
58843;BME280;44614;54.356;10.100;2022-12-29T01:06:50;99540.22;;;6.83;100.00
58843;BME280;44614;54.356;10.100;2022-12-29T01:09:16;99557.78;;;6.87;100.00
58843;BME280;44614;54.356;10.100;2022-12-29T01:12:00;99551.03;;;6.90;100.00
58843;BME280;44614;54.356;10.100;2022-12-29T01:14:26;99545.34;;;6.91;100.00
58843;BME280;44614;54.356;10.100;2022-12-29T01:16:52;99547.84;;;6.93;100.00
58843;BME280;44614;54.356;10.100;2022-12-29T01:19:18;99538.56;;;6.94;100.00
58843;BME280;44614;54.356;10.100;2022-12-29T01:21:45;99538.56;;;6.94;100.00
58843;BME280;44614;54.356;10.100;2022-12-29T01:24:10;99514.44;;;6.79;100.00
58843;BME280;44614;54.356;10.100;2022-12-29T01:26:35;99530.53;;;6.99;100.00
58843;BME280;44614;54.356;10.100;2022-12-29T01:29:01;99523.16;;;6.88;100.00
58843;BME280;44614;54.356;10.100;2022-12-29T01:31:26;99546.22;;;7.03;100.00
58843;BME280;44614;54.356;10.100;2022-12-29T01:33:51;99535.06;;;7.05;100.00
58843;BME280;44614;54.356;10.100;2022-12-29T01:36:17;99523.56;;;7.03;100.00
58843;BME280;44614;54.356;10.100;2022-12-29T01:38:43;99535.31;;;7.03;100.00
58843;BME280;44614;54.356;10.100;2022-12-29T01:41:11;99529.38;;;7.06;100.00
58843;BME280;44614;54.356;10.100;2022-12-29T01:46:15;99525.72;;;7.13;100.00
58843;BME280;44614;54.356;10.100;2022-12-29T01:48:42;99508.50;;;7.12;100.00
58843;BME280;44614;54.356;10.100;2022-12-29T01:51:08;99489.03;;;7.08;100.00
58843;BME280;44614;54.356;10.100;2022-12-29T01:53:34;99515.16;;;7.16;100.00
58843;BME280;44614;54.356;10.100;2022-12-29T01:56:04;99498.66;;;7.11;100.00
58843;BME280;44614;54.356;10.100;2022-12-29T01:58:34;99482.72;;;6.96;100.00
58843;BME280;44614;54.356;10.100;2022-12-29T02:01:01;99505.69;;;7.19;100.00
58843;BME280;44614;54.356;10.100;2022-12-29T02:03:28;99502.13;;;7.18;100.00
58843;BME280;44614;54.356;10.100;2022-12-29T02:06:37;99498.31;;;7.19;100.00
58843;BME280;44614;54.356;10.100;2022-12-29T02:09:04;99486.56;;;7.19;100.00
58843;BME280;44614;54.356;10.100;2022-12-29T02:11:30;99485.50;;;7.20;100.00
58843;BME280;44614;54.356;10.100;2022-12-29T02:13:57;99484.41;;;7.21;100.00
58843;BME280;44614;54.356;10.100;2022-12-29T02:21:39;99473.28;;;7.22;100.00
58843;BME280;44614;54.356;10.100;2022-12-29T02:32:54;99463.31;;;7.28;100.00
58843;BME280;44614;54.356;10.100;2022-12-29T02:35:31;99460.34;;;7.29;100.00
58843;BME280;44614;54.356;10.100;2022-12-29T02:49:15;99447.75;;;7.28;100.00
58843;BME280;44614;54.356;10.100;2022-12-29T02:52:01;99444.81;;;7.30;100.00
58843;BME280;44614;54.356;10.100;2022-12-29T02:54:27;99408.78;;;7.09;100.00
58843;BME280;44614;54.356;10.100;2022-12-29T02:59:47;99435.66;;;7.36;100.00
58843;BME280;44614;54.356;10.100;2022-12-29T03:05:20;99436.00;;;7.40;100.00
58843;BME280;44614;54.356;10.100;2022-12-29T03:13:35;99421.06;;;7.42;100.00
58843;BME280;44614;54.356;10.100;2022-12-29T03:16:37;99410.13;;;7.42;100.00
58843;BME280;44614;54.356;10.100;2022-12-29T03:19:28;99423.31;;;7.45;100.00
58843;BME280;44614;54.356;10.100;2022-12-29T03:21:59;99422.03;;;7.48;100.00
58843;BME280;44614;54.356;10.100;2022-12-29T03:24:48;99413.56;;;7.49;100.00
58843;BME280;44614;54.356;10.100;2022-12-29T03:27:19;99417.84;;;7.45;100.00
58843;BME280;44614;54.356;10.100;2022-12-29T03:29:50;99416.41;;;7.54;100.00
58843;BME280;44614;54.356;10.100;2022-12-29T03:32:27;99413.47;;;7.56;100.00
58843;BME280;44614;54.356;10.100;2022-12-29T03:34:54;99424.97;;;7.58;100.00
58843;BME280;44614;54.356;10.100;2022-12-29T03:37:23;99392.19;;;7.46;100.00
58843;BME280;44614;54.356;10.100;2022-12-29T03:39:51;99429.13;;;7.61;100.00
58843;BME280;44614;54.356;10.100;2022-12-29T03:42:19;99404.28;;;7.62;100.00
58843;BME280;44614;54.356;10.100;2022-12-29T03:44:46;99393.38;;;7.62;100.00
58843;BME280;44614;54.356;10.100;2022-12-29T03:47:13;99392.53;;;7.62;100.00
58843;BME280;44614;54.356;10.100;2022-12-29T03:49:39;99394.69;;;7.71;100.00
58843;BME280;44614;54.356;10.100;2022-12-29T03:52:05;99387.06;;;7.62;100.00
58843;BME280;44614;54.356;10.100;2022-12-29T03:54:31;99388.97;;;7.73;100.00
58843;BME280;44614;54.356;10.100;2022-12-29T03:56:57;99392.31;;;7.75;100.00
58843;BME280;44614;54.356;10.100;2022-12-29T03:59:22;99377.47;;;7.71;100.00
58843;BME280;44614;54.356;10.100;2022-12-29T04:01:48;99385.50;;;7.77;100.00
58843;BME280;44614;54.356;10.100;2022-12-29T04:04:13;99381.13;;;7.76;100.00
58843;BME280;44614;54.356;10.100;2022-12-29T04:06:39;99358.66;;;7.74;100.00
58843;BME280;44614;54.356;10.100;2022-12-29T04:09:04;99376.84;;;7.80;100.00
58843;BME280;44614;54.356;10.100;2022-12-29T04:11:30;99356.28;;;7.78;100.00
58843;BME280;44614;54.356;10.100;2022-12-29T04:13:55;99368.50;;;7.87;100.00
58843;BME280;44614;54.356;10.100;2022-12-29T04:16:20;99350.78;;;7.90;100.00
58843;BME280;44614;54.356;10.100;2022-12-29T04:18:46;99354.38;;;7.90;100.00
58843;BME280;44614;54.356;10.100;2022-12-29T04:21:11;99351.03;;;7.88;100.00
58843;BME280;44614;54.356;10.100;2022-12-29T04:23:37;99351.63;;;7.90;100.00
58843;BME280;44614;54.356;10.100;2022-12-29T04:26:03;99348.91;;;7.90;100.00
58843;BME280;44614;54.356;10.100;2022-12-29T04:28:30;99351.63;;;7.90;100.00
58843;BME280;44614;54.356;10.100;2022-12-29T04:30:55;99346.75;;;7.92;100.00
58843;BME280;44614;54.356;10.100;2022-12-29T04:33:21;99324.78;;;7.87;100.00
58843;BME280;44614;54.356;10.100;2022-12-29T04:35:46;99334.38;;;7.90;100.00
58843;BME280;44614;54.356;10.100;2022-12-29T04:38:13;99315.53;;;7.76;100.00
58843;BME280;44614;54.356;10.100;2022-12-29T04:40:40;99317.66;;;7.86;100.00
58843;BME280;44614;54.356;10.100;2022-12-29T04:43:06;99327.94;;;7.96;100.00
58843;BME280;44614;54.356;10.100;2022-12-29T04:45:31;99335.31;;;7.95;100.00
58843;BME280;44614;54.356;10.100;2022-12-29T04:47:56;99317.75;;;7.91;100.00
58843;BME280;44614;54.356;10.100;2022-12-29T04:50:22;99330.34;;;7.92;100.00
58843;BME280;44614;54.356;10.100;2022-12-29T04:52:47;99322.22;;;7.97;100.00
58843;BME280;44614;54.356;10.100;2022-12-29T04:55:13;99327.69;;;7.97;100.00
58843;BME280;44614;54.356;10.100;2022-12-29T04:57:38;99288.06;;;7.83;100.00
58843;BME280;44614;54.356;10.100;2022-12-29T05:00:04;99306.91;;;7.96;100.00
58843;BME280;44614;54.356;10.100;2022-12-29T05:02:30;99289.00;;;7.89;100.00
58843;BME280;44614;54.356;10.100;2022-12-29T05:04:55;99305.50;;;7.94;100.00
58843;BME280;44614;54.356;10.100;2022-12-29T05:07:20;99305.25;;;7.95;100.00
58843;BME280;44614;54.356;10.100;2022-12-29T05:09:45;99290.41;;;7.91;100.00
58843;BME280;44614;54.356;10.100;2022-12-29T05:12:11;99290.91;;;7.88;100.00
58843;BME280;44614;54.356;10.100;2022-12-29T05:14:36;99283.88;;;7.92;100.00
58843;BME280;44614;54.356;10.100;2022-12-29T05:17:01;99292.41;;;7.96;100.00
58843;BME280;44614;54.356;10.100;2022-12-29T05:19:27;99285.63;;;7.98;100.00
58843;BME280;44614;54.356;10.100;2022-12-29T05:21:52;99291.66;;;8.00;100.00
58843;BME280;44614;54.356;10.100;2022-12-29T05:24:18;99288.94;;;8.00;100.00
58843;BME280;44614;54.356;10.100;2022-12-29T05:26:43;99282.06;;;7.98;100.00
58843;BME280;44614;54.356;10.100;2022-12-29T05:29:08;99285.72;;;8.03;100.00
58843;BME280;44614;54.356;10.100;2022-12-29T05:31:34;99296.66;;;8.03;100.00
58843;BME280;44614;54.356;10.100;2022-12-29T05:34:01;99284.56;;;7.99;100.00
58843;BME280;44614;54.356;10.100;2022-12-29T05:36:26;99278.59;;;8.02;100.00
58843;BME280;44614;54.356;10.100;2022-12-29T05:38:52;99279.44;;;8.03;100.00
58843;BME280;44614;54.356;10.100;2022-12-29T05:41:17;99276.69;;;8.03;100.00
58843;BME280;44614;54.356;10.100;2022-12-29T05:43:42;99282.41;;;8.01;100.00
58843;BME280;44614;54.356;10.100;2022-12-29T05:46:08;99281.22;;;7.97;100.00
58843;BME280;44614;54.356;10.100;2022-12-29T05:48:33;99279.69;;;8.01;100.00
58843;BME280;44614;54.356;10.100;2022-12-29T05:50:58;99276.94;;;8.01;100.00
58843;BME280;44614;54.356;10.100;2022-12-29T05:53:24;99277.19;;;8.00;100.00
58843;BME280;44614;54.356;10.100;2022-12-29T05:55:49;99274.69;;;7.98;100.00
58843;BME280;44614;54.356;10.100;2022-12-29T05:58:15;99290.84;;;8.00;100.00
58843;BME280;44614;54.356;10.100;2022-12-29T06:00:41;99283.25;;;8.02;100.00
58843;BME280;44614;54.356;10.100;2022-12-29T06:03:06;99286.56;;;8.04;100.00
58843;BME280;44614;54.356;10.100;2022-12-29T06:05:31;99276.78;;;8.08;100.00
58843;BME280;44614;54.356;10.100;2022-12-29T06:07:57;99282.38;;;8.13;100.00
58843;BME280;44614;54.356;10.100;2022-12-29T06:10:22;99290.06;;;8.16;100.00
58843;BME280;44614;54.356;10.100;2022-12-29T06:12:47;99284.34;;;8.18;100.00
58843;BME280;44614;54.356;10.100;2022-12-29T06:15:13;99290.41;;;8.20;100.00
58843;BME280;44614;54.356;10.100;2022-12-29T06:17:38;99294.22;;;8.19;100.00
58843;BME280;44614;54.356;10.100;2022-12-29T06:20:04;99299.69;;;8.19;100.00
58843;BME280;44614;54.356;10.100;2022-12-29T06:22:30;99292.91;;;8.21;100.00
58843;BME280;44614;54.356;10.100;2022-12-29T06:24:55;99303.84;;;8.21;100.00
58843;BME280;44614;54.356;10.100;2022-12-29T06:27:20;99304.19;;;8.25;100.00
58843;BME280;44614;54.356;10.100;2022-12-29T06:29:46;99307.47;;;8.27;100.00
58843;BME280;44614;54.356;10.100;2022-12-29T06:32:11;99303.34;;;8.24;100.00
58843;BME280;44614;54.356;10.100;2022-12-29T06:34:36;99306.19;;;8.29;100.00
58843;BME280;44614;54.356;10.100;2022-12-29T06:37:02;99300.09;;;8.27;100.00
58843;BME280;44614;54.356;10.100;2022-12-29T06:39:27;99292.06;;;8.21;100.00
58843;BME280;44614;54.356;10.100;2022-12-29T06:41:53;99302.84;;;8.27;100.00
58843;BME280;44614;54.356;10.100;2022-12-29T06:44:19;99306.66;;;8.26;100.00
58843;BME280;44614;54.356;10.100;2022-12-29T06:46:45;99302.84;;;8.27;100.00
58843;BME280;44614;54.356;10.100;2022-12-29T06:49:10;99295.88;;;8.20;100.00
58843;BME280;44614;54.356;10.100;2022-12-29T06:51:36;99311.66;;;8.29;100.00
58843;BME280;44614;54.356;10.100;2022-12-29T06:54:01;99312.97;;;8.27;100.00
58843;BME280;44614;54.356;10.100;2022-12-29T06:56:26;99299.53;;;8.25;100.00
58843;BME280;44614;54.356;10.100;2022-12-29T06:58:51;99305.34;;;8.29;100.00
58843;BME280;44614;54.356;10.100;2022-12-29T07:01:17;99300.72;;;8.29;100.00
58843;BME280;44614;54.356;10.100;2022-12-29T07:03:42;99301.53;;;8.30;100.00
58843;BME280;44614;54.356;10.100;2022-12-29T07:06:08;99301.03;;;8.33;100.00
58843;BME280;44614;54.356;10.100;2022-12-29T07:08:33;99302.13;;;8.32;100.00
58843;BME280;44614;54.356;10.100;2022-12-29T07:10:58;99301.03;;;8.33;100.00
58843;BME280;44614;54.356;10.100;2022-12-29T07:13:24;99264.53;;;8.11;100.00
58843;BME280;44614;54.356;10.100;2022-12-29T07:15:49;99296.66;;;8.32;100.00
58843;BME280;44614;54.356;10.100;2022-12-29T07:18:15;99307.59;;;8.32;100.00
58843;BME280;44614;54.356;10.100;2022-12-29T07:20:40;99307.59;;;8.32;100.00
58843;BME280;44614;54.356;10.100;2022-12-29T07:23:05;99296.31;;;8.28;100.00
58843;BME280;44614;54.356;10.100;2022-12-29T07:25:31;99316.38;;;8.34;100.00
58843;BME280;44614;54.356;10.100;2022-12-29T07:27:56;99324.56;;;8.34;100.00
58843;BME280;44614;54.356;10.100;2022-12-29T07:30:21;99312.00;;;8.33;100.00
58843;BME280;44614;54.356;10.100;2022-12-29T07:32:47;99320.19;;;8.33;100.00
58843;BME280;44614;54.356;10.100;2022-12-29T07:35:12;99317.19;;;8.35;100.00
58843;BME280;44614;54.356;10.100;2022-12-29T07:37:38;99321.84;;;8.34;100.00
58843;BME280;44614;54.356;10.100;2022-12-29T07:40:04;99339.47;;;8.38;100.00
58843;BME280;44614;54.356;10.100;2022-12-29T07:42:30;99324.00;;;8.32;100.00
58843;BME280;44614;54.356;10.100;2022-12-29T07:44:56;99338.84;;;8.36;100.00
58843;BME280;44614;54.356;10.100;2022-12-29T07:47:21;99344.69;;;8.40;100.00
58843;BME280;44614;54.356;10.100;2022-12-29T07:49:46;99347.66;;;8.38;100.00
58843;BME280;44614;54.356;10.100;2022-12-29T07:52:12;99359.44;;;8.39;100.00
58843;BME280;44614;54.356;10.100;2022-12-29T07:54:37;99343.63;;;8.41;100.00
58843;BME280;44614;54.356;10.100;2022-12-29T07:57:04;99343.97;;;8.33;100.00
58843;BME280;44614;54.356;10.100;2022-12-29T07:59:29;99362.75;;;8.41;100.00
58843;BME280;44614;54.356;10.100;2022-12-29T08:01:55;99363.09;;;8.44;100.00
58843;BME280;44614;54.356;10.100;2022-12-29T08:04:21;99346.00;;;8.37;100.00
58843;BME280;44614;54.356;10.100;2022-12-29T08:06:46;99362.03;;;8.45;100.00
58843;BME280;44614;54.356;10.100;2022-12-29T08:09:11;99358.59;;;8.38;100.00
58843;BME280;44614;54.356;10.100;2022-12-29T08:11:37;99365.59;;;8.46;100.00
58843;BME280;44614;54.356;10.100;2022-12-29T08:14:03;99371.06;;;8.46;100.00
58843;BME280;44614;54.356;10.100;2022-12-29T08:16:28;99364.06;;;8.38;100.00
58843;BME280;44614;54.356;10.100;2022-12-29T08:18:54;99383.66;;;8.47;100.00
58843;BME280;44614;54.356;10.100;2022-12-29T08:21:19;99385.34;;;8.48;100.00
58843;BME280;44614;54.356;10.100;2022-12-29T08:23:44;99380.69;;;8.48;100.00
58843;BME280;44614;54.356;10.100;2022-12-29T08:26:10;99359.69;;;8.37;100.00
58843;BME280;44614;54.356;10.100;2022-12-29T08:28:36;99381.78;;;8.47;100.00
58843;BME280;44614;54.356;10.100;2022-12-29T08:31:02;99381.50;;;8.49;100.00
58843;BME280;44614;54.356;10.100;2022-12-29T08:33:28;99382.34;;;8.49;100.00
58843;BME280;44614;54.356;10.100;2022-12-29T08:36:05;99389.72;;;8.49;100.00
58843;BME280;44614;54.356;10.100;2022-12-29T08:38:31;99385.56;;;8.46;100.00
58843;BME280;44614;54.356;10.100;2022-12-29T08:40:58;99377.34;;;8.46;100.00
58843;BME280;44614;54.356;10.100;2022-12-29T08:43:24;99382.81;;;8.46;100.00
58843;BME280;44614;54.356;10.100;2022-12-29T08:45:50;99365.59;;;8.34;100.00
58843;BME280;44614;54.356;10.100;2022-12-29T08:48:15;99362.41;;;8.37;100.00
58843;BME280;44614;54.356;10.100;2022-12-29T08:50:45;99374.41;;;8.36;100.00
58843;BME280;44614;54.356;10.100;2022-12-29T08:53:11;99372.50;;;8.37;100.00
58843;BME280;44614;54.356;10.100;2022-12-29T08:55:36;99368.47;;;8.39;100.00
58843;BME280;44614;54.356;10.100;2022-12-29T08:58:01;99376.66;;;8.39;100.00
58843;BME280;44614;54.356;10.100;2022-12-29T09:00:27;99391.78;;;8.42;100.00
58843;BME280;44614;54.356;10.100;2022-12-29T09:02:52;99385.72;;;8.40;100.00
58843;BME280;44614;54.356;10.100;2022-12-29T09:05:17;99380.00;;;8.41;100.00
58843;BME280;44614;54.356;10.100;2022-12-29T09:07:42;99385.72;;;8.40;100.00
58843;BME280;44614;54.356;10.100;2022-12-29T09:10:08;99392.25;;;8.39;100.00
58843;BME280;44614;54.356;10.100;2022-12-29T09:12:33;99392.75;;;8.36;100.00
58843;BME280;44614;54.356;10.100;2022-12-29T09:14:59;99404.16;;;8.33;100.00
58843;BME280;44614;54.356;10.100;2022-12-29T09:17:24;99414.28;;;8.32;100.00
58843;BME280;44614;54.356;10.100;2022-12-29T09:20:09;99395.13;;;8.32;100.00
58843;BME280;44614;54.356;10.100;2022-12-29T09:22:35;99404.28;;;8.38;100.00
58843;BME280;44614;54.356;10.100;2022-12-29T09:25:01;99403.06;;;8.34;100.00
58843;BME280;44614;54.356;10.100;2022-12-29T09:27:26;99408.28;;;8.47;100.00
58843;BME280;44614;54.356;10.100;2022-12-29T09:29:52;99406.97;;;8.49;100.00
58843;BME280;44614;54.356;10.100;2022-12-29T09:32:17;99411.34;;;8.50;100.00
58843;BME280;44614;54.356;10.100;2022-12-29T09:34:43;99408.72;;;8.56;100.00
58843;BME280;44614;54.356;10.100;2022-12-29T09:37:08;99404.19;;;8.61;100.00
58843;BME280;44614;54.356;10.100;2022-12-29T09:39:33;99414.03;;;8.62;100.00
58843;BME280;44614;54.356;10.100;2022-12-29T09:42:01;99417.72;;;8.68;100.00
58843;BME280;44614;54.356;10.100;2022-12-29T09:44:50;99416.63;;;8.69;100.00
58843;BME280;44614;54.356;10.100;2022-12-29T09:47:18;99419.13;;;8.70;100.00
58843;BME280;44614;54.356;10.100;2022-12-29T09:49:54;99353.59;;;8.35;100.00
58843;BME280;44614;54.356;10.100;2022-12-29T09:52:23;99408.41;;;8.69;99.43
58843;BME280;44614;54.356;10.100;2022-12-29T09:55:10;99423.88;;;8.75;100.00
58843;BME280;44614;54.356;10.100;2022-12-29T09:57:54;99414.31;;;8.77;99.52
58843;BME280;44614;54.356;10.100;2022-12-29T10:00:40;99412.59;;;8.71;99.91
58843;BME280;44614;54.356;10.100;2022-12-29T10:03:15;99426.69;;;8.80;98.03
58843;BME280;44614;54.356;10.100;2022-12-29T10:05:49;99423.22;;;8.85;99.64
58843;BME280;44614;54.356;10.100;2022-12-29T10:11:26;99411.03;;;8.92;98.22
58843;BME280;44614;54.356;10.100;2022-12-29T10:16:50;99415.78;;;8.97;93.88
58843;BME280;44614;54.356;10.100;2022-12-29T10:19:26;99416.94;;;9.01;96.14
58843;BME280;44614;54.356;10.100;2022-12-29T10:24:22;99405.16;;;9.00;96.47
58843;BME280;44614;54.356;10.100;2022-12-29T10:26:51;99411.47;;;9.01;97.13
58843;BME280;44614;54.356;10.100;2022-12-29T10:29:18;99404.56;;;8.98;93.41
58843;BME280;44614;54.356;10.100;2022-12-29T10:31:50;99392.31;;;9.01;94.70
58843;BME280;44614;54.356;10.100;2022-12-29T10:34:41;99407.31;;;8.98;90.91
58843;BME280;44614;54.356;10.100;2022-12-29T10:37:14;99396.94;;;9.00;94.94
58843;BME280;44614;54.356;10.100;2022-12-29T10:39:50;99422.16;;;9.02;94.10
58843;BME280;44614;54.356;10.100;2022-12-29T10:44:50;99412.63;;;9.05;96.84
58843;BME280;44614;54.356;10.100;2022-12-29T10:47:22;99399.16;;;9.03;94.98
58843;BME280;44614;54.356;10.100;2022-12-29T10:49:49;99382.25;;;8.90;94.98
58843;BME280;44614;54.356;10.100;2022-12-29T10:52:16;99394.28;;;9.06;92.84
58843;BME280;44614;54.356;10.100;2022-12-29T10:54:57;99386.97;;;8.94;96.88
58843;BME280;44614;54.356;10.100;2022-12-29T10:57:36;99389.91;;;9.05;93.19
58843;BME280;44614;54.356;10.100;2022-12-29T11:00:19;99406.66;;;9.08;94.42
58843;BME280;44614;54.356;10.100;2022-12-29T11:05:24;99390.97;;;9.03;94.89
58843;BME280;44614;54.356;10.100;2022-12-29T11:07:58;99385.31;;;9.10;93.78
58843;BME280;44614;54.356;10.100;2022-12-29T11:13:01;99408.47;;;9.19;97.01
58843;BME280;44614;54.356;10.100;2022-12-29T11:15:27;99393.63;;;9.15;94.62
58843;BME280;44614;54.356;10.100;2022-12-29T11:18:01;99389.22;;;9.14;94.01
58843;BME280;44614;54.356;10.100;2022-12-29T11:20:36;99394.69;;;9.14;96.21
58843;BME280;44614;54.356;10.100;2022-12-29T11:23:32;99392.72;;;9.10;96.94
58843;BME280;44614;54.356;10.100;2022-12-29T11:28:38;99390.97;;;9.03;99.92
58843;BME280;44614;54.356;10.100;2022-12-29T11:31:05;99398.28;;;8.98;98.97
58843;BME280;44614;54.356;10.100;2022-12-29T11:33:32;99397.94;;;8.94;98.91
58843;BME280;44614;54.356;10.100;2022-12-29T11:36:07;99376.75;;;8.73;99.13
58843;BME280;44614;54.356;10.100;2022-12-29T11:38:36;99404.31;;;8.83;100.00
58843;BME280;44614;54.356;10.100;2022-12-29T11:41:03;99408.84;;;8.77;100.00
58843;BME280;44614;54.356;10.100;2022-12-29T11:43:43;99395.75;;;8.79;100.00
58843;BME280;44614;54.356;10.100;2022-12-29T11:46:21;99395.41;;;8.76;100.00
58843;BME280;44614;54.356;10.100;2022-12-29T11:48:49;99403.53;;;8.71;100.00
58843;BME280;44614;54.356;10.100;2022-12-29T11:51:22;99402.38;;;8.67;100.00
58843;BME280;44614;54.356;10.100;2022-12-29T11:53:56;99404.28;;;8.66;100.00
58843;BME280;44614;54.356;10.100;2022-12-29T11:56:39;99401.22;;;8.63;100.00
58843;BME280;44614;54.356;10.100;2022-12-29T11:59:34;99393.34;;;8.66;100.00
58843;BME280;44614;54.356;10.100;2022-12-29T12:02:35;99397.97;;;8.66;100.00
58843;BME280;44614;54.356;10.100;2022-12-29T12:05:10;99391.31;;;8.62;100.00
58843;BME280;44614;54.356;10.100;2022-12-29T12:07:44;99390.84;;;8.65;100.00
58843;BME280;44614;54.356;10.100;2022-12-29T12:10:16;99379.16;;;8.69;100.00
58843;BME280;44614;54.356;10.100;2022-12-29T12:15:40;99382.91;;;8.80;100.00
58843;BME280;44614;54.356;10.100;2022-12-29T12:21:14;99398.06;;;8.71;100.00
58843;BME280;44614;54.356;10.100;2022-12-29T12:26:20;99393.97;;;8.57;100.00
58843;BME280;44614;54.356;10.100;2022-12-29T12:28:54;99396.63;;;8.51;100.00
58843;BME280;44614;54.356;10.100;2022-12-29T12:31:47;99406.88;;;8.44;100.00
58843;BME280;44614;54.356;10.100;2022-12-29T12:34:26;99370.69;;;8.14;100.00
58843;BME280;44614;54.356;10.100;2022-12-29T12:39:49;99409.81;;;8.14;100.00
58843;BME280;44614;54.356;10.100;2022-12-29T12:42:36;99409.94;;;8.07;100.00
58843;BME280;44614;54.356;10.100;2022-12-29T13:02:01;99432.31;;;7.81;100.00
58843;BME280;44614;54.356;10.100;2022-12-29T13:10:12;99443.38;;;7.74;100.00
58843;BME280;44614;54.356;10.100;2022-12-29T13:15:57;99464.66;;;7.72;100.00
58843;BME280;44614;54.356;10.100;2022-12-29T13:23:56;99465.72;;;7.71;100.00
58843;BME280;44614;54.356;10.100;2022-12-29T13:26:35;99476.50;;;7.66;100.00
58843;BME280;44614;54.356;10.100;2022-12-29T13:29:15;99471.06;;;7.66;100.00
58843;BME280;44614;54.356;10.100;2022-12-29T13:37:04;99501.72;;;7.56;100.00
58843;BME280;44614;54.356;10.100;2022-12-29T13:39:49;99503.47;;;7.51;100.00
58843;BME280;44614;54.356;10.100;2022-12-29T13:42:18;99527.69;;;7.47;100.00
58843;BME280;44614;54.356;10.100;2022-12-29T13:44:47;99521.41;;;7.47;100.00
58843;BME280;44614;54.356;10.100;2022-12-29T13:49:58;99522.56;;;7.39;100.00
58843;BME280;44614;54.356;10.100;2022-12-29T13:52:37;99546.31;;;7.39;100.00
58843;BME280;44614;54.356;10.100;2022-12-29T13:55:32;99532.22;;;7.42;100.00
58843;BME280;44614;54.356;10.100;2022-12-29T14:06:25;99556.09;;;7.46;100.00
58843;BME280;44614;54.356;10.100;2022-12-29T14:08:54;99567.84;;;7.47;100.00
58843;BME280;44614;54.356;10.100;2022-12-29T14:11:22;99547.88;;;7.46;100.00
58843;BME280;44614;54.356;10.100;2022-12-29T14:13:49;99568.09;;;7.45;100.00
58843;BME280;44614;54.356;10.100;2022-12-29T14:18:51;99549.03;;;7.27;100.00
58843;BME280;44614;54.356;10.100;2022-12-29T14:21:21;99601.44;;;7.47;100.00
58843;BME280;44614;54.356;10.100;2022-12-29T14:23:49;99590.31;;;7.49;100.00
58843;BME280;44614;54.356;10.100;2022-12-29T14:28:41;99611.78;;;7.45;100.00
58843;BME280;44614;54.356;10.100;2022-12-29T14:36:41;99616.06;;;7.41;100.00
58843;BME280;44614;54.356;10.100;2022-12-29T14:39:39;99613.91;;;7.43;100.00
58843;BME280;44614;54.356;10.100;2022-12-29T14:44:55;99630.53;;;7.42;100.00
58843;BME280;44614;54.356;10.100;2022-12-29T14:47:28;99634.56;;;7.39;100.00
58843;BME280;44614;54.356;10.100;2022-12-29T14:50:04;99646.19;;;7.35;100.00
58843;BME280;44614;54.356;10.100;2022-12-29T14:52:30;99639.81;;;7.41;100.00
58843;BME280;44614;54.356;10.100;2022-12-29T14:54:57;99648.00;;;7.41;100.00
58843;BME280;44614;54.356;10.100;2022-12-29T14:57:32;99655.13;;;7.42;100.00
58843;BME280;44614;54.356;10.100;2022-12-29T15:00:07;99651.88;;;7.33;100.00
58843;BME280;44614;54.356;10.100;2022-12-29T15:02:41;99635.97;;;7.30;100.00
58843;BME280;44614;54.356;10.100;2022-12-29T15:05:37;99664.38;;;7.41;100.00
58843;BME280;44614;54.356;10.100;2022-12-29T15:08:07;99660.78;;;7.40;100.00
58843;BME280;44614;54.356;10.100;2022-12-29T15:10:37;99656.41;;;7.39;100.00
58843;BME280;44614;54.356;10.100;2022-12-29T15:13:09;99663.19;;;7.37;100.00
58843;BME280;44614;54.356;10.100;2022-12-29T15:15:38;99670.75;;;7.35;100.00